createdAt,value
2019-03-17T00:03:02.594Z,9.83
2019-03-17T00:06:08.010Z,9.81
2019-03-17T00:09:16.547Z,9.76
2019-03-17T00:12:21.964Z,9.78
2019-03-17T00:15:27.363Z,9.77
2019-03-17T00:18:32.632Z,9.84
2019-03-17T00:21:37.876Z,9.91
2019-03-17T00:24:43.144Z,9.92
2019-03-17T00:27:48.395Z,9.97
2019-03-17T00:30:53.666Z,9.96
2019-03-17T00:33:59.007Z,9.95
2019-03-17T00:37:04.337Z,9.99
2019-03-17T00:40:10.003Z,9.93
2019-03-17T00:43:15.388Z,10.01
2019-03-17T00:46:20.687Z,10.06
2019-03-17T00:49:25.938Z,10.00
2019-03-17T00:52:31.182Z,10.05
2019-03-17T00:55:36.440Z,10.04
2019-03-17T00:58:41.682Z,10.10
2019-03-17T01:01:52.012Z,9.99
2019-03-17T01:04:56.336Z,10.01
2019-03-17T01:08:01.181Z,9.92
2019-03-17T01:11:06.492Z,9.76
2019-03-17T01:14:11.921Z,9.76
2019-03-17T01:17:17.143Z,9.77
2019-03-17T01:20:22.533Z,9.68
2019-03-17T01:23:27.812Z,9.83
2019-03-17T01:26:33.165Z,9.69
2019-03-17T01:29:39.986Z,9.79
2019-03-17T01:32:45.423Z,9.80
2019-03-17T01:35:50.813Z,9.71
2019-03-17T01:38:56.222Z,9.71
2019-03-17T01:42:01.640Z,9.65
2019-03-17T01:45:07.125Z,9.68
2019-03-17T01:48:12.509Z,9.67
2019-03-17T01:51:19.489Z,9.68
2019-03-17T01:54:29.144Z,9.74
2019-03-17T01:57:34.437Z,9.62
2019-03-17T02:00:39.644Z,9.48
2019-03-17T02:03:44.892Z,9.40
2019-03-17T02:06:50.161Z,9.37
2019-03-17T02:09:55.456Z,9.36
2019-03-17T02:13:00.693Z,9.40
2019-03-17T02:16:05.984Z,9.36
2019-03-17T02:19:11.208Z,9.33
2019-03-17T02:22:16.467Z,9.18
2019-03-17T02:25:21.806Z,9.15
2019-03-17T02:28:27.090Z,9.11
2019-03-17T02:31:32.349Z,9.14
2019-03-17T02:34:37.660Z,9.17
2019-03-17T02:37:43.006Z,9.20
2019-03-17T02:40:48.284Z,9.12
2019-03-17T02:43:53.548Z,9.20
2019-03-17T02:46:58.987Z,9.22
2019-03-17T02:50:04.433Z,9.21
2019-03-17T02:53:09.768Z,9.44
2019-03-17T02:56:15.030Z,9.49
2019-03-17T02:59:20.589Z,9.52
2019-03-17T03:02:25.828Z,9.54
2019-03-17T03:05:31.158Z,9.55
2019-03-17T03:08:36.404Z,9.62
2019-03-17T03:11:41.714Z,9.67
2019-03-17T03:15:06.461Z,9.67
2019-03-17T03:18:11.781Z,9.74
2019-03-17T03:21:17.016Z,9.69
2019-03-17T03:24:22.270Z,9.72
2019-03-17T03:27:27.522Z,9.64
2019-03-17T03:30:32.774Z,9.67
2019-03-17T03:33:38.179Z,9.63
2019-03-17T03:36:43.411Z,9.64
2019-03-17T03:39:48.709Z,9.66
2019-03-17T03:42:54.048Z,9.65
2019-03-17T03:45:59.324Z,9.54
2019-03-17T03:49:04.727Z,9.56
2019-03-17T03:52:10.070Z,9.57
2019-03-17T03:55:15.296Z,9.66
2019-03-17T03:58:20.551Z,9.54
2019-03-17T04:01:25.841Z,9.71
2019-03-17T04:04:31.176Z,9.63
2019-03-17T04:07:36.427Z,9.49
2019-03-17T04:10:41.712Z,9.61
2019-03-17T04:13:47.121Z,9.50
2019-03-17T04:16:52.356Z,9.54
2019-03-17T04:19:58.933Z,9.53
2019-03-17T04:23:04.273Z,9.61
2019-03-17T04:26:09.615Z,9.60
2019-03-17T04:29:14.881Z,9.53
2019-03-17T04:32:20.121Z,9.63
2019-03-17T04:35:25.418Z,9.57
2019-03-17T04:38:30.644Z,9.64
2019-03-17T04:41:35.870Z,9.66
2019-03-17T04:44:41.150Z,9.66
2019-03-17T04:47:46.358Z,9.63
2019-03-17T04:50:51.714Z,9.56
2019-03-17T04:53:57.064Z,9.64
2019-03-17T04:57:02.335Z,9.54
2019-03-17T05:00:08.756Z,9.55
2019-03-17T05:03:13.985Z,9.54
2019-03-17T05:06:19.254Z,9.46
2019-03-17T05:09:43.494Z,9.36
2019-03-17T05:12:48.729Z,9.35
2019-03-17T05:15:53.966Z,9.38
2019-03-17T05:18:59.221Z,9.48
2019-03-17T05:22:04.487Z,9.35
2019-03-17T05:25:09.851Z,9.32
2019-03-17T05:28:16.215Z,9.31
2019-03-17T05:31:21.516Z,9.25
2019-03-17T05:34:26.777Z,9.29
2019-03-17T05:37:31.979Z,9.26
2019-03-17T05:40:37.256Z,9.20
2019-03-17T05:43:42.528Z,9.10
2019-03-17T05:46:47.798Z,9.03
2019-03-17T05:49:54.185Z,8.85
2019-03-17T05:52:59.506Z,8.73
2019-03-17T05:56:04.792Z,8.65
2019-03-17T05:59:11.960Z,8.55
2019-03-17T06:02:17.173Z,8.57
2019-03-17T06:05:22.475Z,8.45
2019-03-17T06:08:27.821Z,8.36
2019-03-17T06:11:33.220Z,8.29
2019-03-17T06:14:38.451Z,8.20
2019-03-17T06:17:43.778Z,8.16
2019-03-17T06:20:49.105Z,8.11
2019-03-17T06:23:54.486Z,8.09
2019-03-17T06:26:59.822Z,8.13
2019-03-17T06:30:05.749Z,8.02
2019-03-17T06:33:11.080Z,7.92
2019-03-17T06:36:16.430Z,7.89
2019-03-17T06:39:23.866Z,7.86
2019-03-17T06:42:29.911Z,7.89
2019-03-17T06:45:35.228Z,7.92
2019-03-17T06:48:41.566Z,7.94
2019-03-17T06:51:49.581Z,8.00
2019-03-17T06:54:54.885Z,8.02
2019-03-17T06:58:00.146Z,8.03
2019-03-17T07:01:05.629Z,8.01
2019-03-17T07:04:11.000Z,7.99
2019-03-17T07:07:16.334Z,7.98
2019-03-17T07:10:21.804Z,8.00
2019-03-17T07:13:27.140Z,8.07
2019-03-17T07:16:32.447Z,7.98
2019-03-17T07:19:37.675Z,8.03
2019-03-17T07:22:43.059Z,8.05
2019-03-17T07:25:48.449Z,8.08
2019-03-17T07:28:53.701Z,8.04
2019-03-17T07:31:58.991Z,8.07
2019-03-17T07:35:04.418Z,8.08
2019-03-17T07:38:09.743Z,8.13
2019-03-17T07:41:15.109Z,8.19
2019-03-17T07:44:20.352Z,8.20
2019-03-17T07:47:25.663Z,8.27
2019-03-17T07:50:30.935Z,8.21
2019-03-17T07:53:36.210Z,8.12
2019-03-17T07:56:41.606Z,8.11
2019-03-17T07:59:46.910Z,8.12
2019-03-17T08:02:52.340Z,8.21
2019-03-17T08:05:57.616Z,8.24
2019-03-17T08:09:04.655Z,8.20
2019-03-17T08:12:09.959Z,8.09
2019-03-17T08:15:15.291Z,8.14
2019-03-17T08:18:20.528Z,8.06
2019-03-17T08:21:25.843Z,7.55
2019-03-17T08:24:31.177Z,6.73
2019-03-17T08:27:36.441Z,6.13
2019-03-17T08:30:52.494Z,5.63
2019-03-17T08:33:48.795Z,5.74
2019-03-17T08:36:54.213Z,5.80
2019-03-17T08:39:59.668Z,5.92
2019-03-17T08:43:05.077Z,5.92
2019-03-17T08:46:10.294Z,5.89
2019-03-17T08:49:16.660Z,5.79
2019-03-17T08:52:21.922Z,5.94
2019-03-17T08:55:27.161Z,6.01
2019-03-17T08:58:32.492Z,5.94
2019-03-17T09:01:37.786Z,6.17
2019-03-17T09:04:43.105Z,6.37
2019-03-17T09:07:48.425Z,6.81
2019-03-17T09:10:54.697Z,6.81
2019-03-17T09:14:00.052Z,7.12
2019-03-17T09:17:14.129Z,7.18
2019-03-17T09:20:12.364Z,7.46
2019-03-17T09:23:17.650Z,7.12
2019-03-17T09:26:22.996Z,7.12
2019-03-17T09:29:28.333Z,7.02
2019-03-17T09:32:33.609Z,7.11
2019-03-17T09:35:40.120Z,7.17
2019-03-17T09:38:47.476Z,7.42
2019-03-17T09:41:53.538Z,7.55
2019-03-17T09:44:58.993Z,7.53
2019-03-17T09:48:04.264Z,7.74
2019-03-17T09:51:10.806Z,7.47
2019-03-17T09:54:16.063Z,7.67
2019-03-17T09:57:21.373Z,7.76
2019-03-17T10:00:26.603Z,7.58
2019-03-17T10:03:31.889Z,7.52
2019-03-17T10:06:37.129Z,7.72
2019-03-17T10:09:42.439Z,7.59
2019-03-17T10:12:47.680Z,8.00
2019-03-17T10:15:53.011Z,8.23
2019-03-17T10:18:58.294Z,8.18
2019-03-17T10:22:03.590Z,7.94
2019-03-17T10:25:10.285Z,8.42
2019-03-17T10:28:19.053Z,8.28
2019-03-17T10:31:24.452Z,8.50
2019-03-17T10:34:29.655Z,8.30
2019-03-17T10:37:35.952Z,8.32
2019-03-17T10:40:41.353Z,8.63
2019-03-17T10:43:46.589Z,8.43
2019-03-17T10:46:51.825Z,8.60
2019-03-17T10:49:59.505Z,8.57
2019-03-17T10:53:04.765Z,8.11
2019-03-17T10:56:10.044Z,8.22
2019-03-17T10:59:15.285Z,8.27
2019-03-17T11:02:20.668Z,8.60
2019-03-17T11:05:25.912Z,9.02
2019-03-17T11:08:31.209Z,8.83
2019-03-17T11:11:36.553Z,8.86
2019-03-17T11:14:43.013Z,8.98
2019-03-17T11:17:48.284Z,8.70
2019-03-17T11:20:55.978Z,8.60
2019-03-17T11:24:01.409Z,8.41
2019-03-17T11:27:06.757Z,8.32
2019-03-17T11:30:12.716Z,8.31
2019-03-17T11:33:18.079Z,8.22
2019-03-17T11:36:23.331Z,8.08
2019-03-17T11:39:37.155Z,8.26
2019-03-17T11:42:35.650Z,8.46
2019-03-17T11:45:40.900Z,9.11
2019-03-17T11:48:46.134Z,9.26
2019-03-17T11:51:52.533Z,9.70
2019-03-17T11:54:57.819Z,10.19
2019-03-17T11:58:03.119Z,9.96
2019-03-17T12:01:08.373Z,9.97
2019-03-17T12:04:13.643Z,9.83
2019-03-17T12:07:19.015Z,9.68
2019-03-17T12:10:24.399Z,9.27
2019-03-17T12:13:29.848Z,8.73
2019-03-17T12:16:35.175Z,8.15
2019-03-17T12:19:42.935Z,7.42
2019-03-17T12:22:48.259Z,7.34
2019-03-17T12:25:53.742Z,7.52
2019-03-17T12:28:59.042Z,7.65
2019-03-17T12:32:04.302Z,7.50
2019-03-17T12:35:09.559Z,7.88
2019-03-17T12:38:14.861Z,8.17
2019-03-17T12:41:20.238Z,8.22
2019-03-17T12:44:25.527Z,8.42
2019-03-17T12:47:30.761Z,8.21
2019-03-17T12:50:36.030Z,8.05
2019-03-17T12:53:41.264Z,8.08
2019-03-17T12:56:46.588Z,8.21
2019-03-17T12:59:51.889Z,8.30
2019-03-17T13:02:57.250Z,8.63
2019-03-17T13:06:02.513Z,8.66
2019-03-17T13:09:08.157Z,8.81
2019-03-17T13:12:13.458Z,8.87
2019-03-17T13:15:18.769Z,8.96
2019-03-17T13:18:24.249Z,8.80
2019-03-17T13:21:29.504Z,8.93
2019-03-17T13:24:38.196Z,8.96
2019-03-17T13:27:43.445Z,9.29
2019-03-17T13:30:49.643Z,9.68
2019-03-17T13:33:55.159Z,9.45
2019-03-17T13:37:00.485Z,9.52
2019-03-17T13:40:07.174Z,9.68
2019-03-17T13:43:12.398Z,9.63
2019-03-17T13:46:17.677Z,9.40
2019-03-17T13:49:22.916Z,9.96
2019-03-17T13:52:28.227Z,10.28
2019-03-17T13:55:33.502Z,10.13
2019-03-17T13:58:38.809Z,9.65
2019-03-17T14:01:47.961Z,8.91
2019-03-17T14:04:54.830Z,8.75
2019-03-17T14:08:00.287Z,8.92
2019-03-17T14:11:05.682Z,8.51
2019-03-17T14:14:10.928Z,8.41
2019-03-17T14:17:16.249Z,8.27
2019-03-17T14:20:21.589Z,7.75
2019-03-17T14:23:26.983Z,7.70
2019-03-17T14:26:32.251Z,7.42
2019-03-17T14:29:37.543Z,7.00
2019-03-17T14:32:42.826Z,6.19
2019-03-17T14:35:48.189Z,4.91
2019-03-17T14:38:53.428Z,5.01
2019-03-17T14:41:58.762Z,4.90
2019-03-17T14:45:04.296Z,5.22
2019-03-17T14:48:09.574Z,5.50
2019-03-17T14:51:14.902Z,5.74
2019-03-17T14:54:21.285Z,6.10
2019-03-17T14:57:26.597Z,6.33
2019-03-17T15:00:31.963Z,6.50
2019-03-17T15:03:37.253Z,6.57
2019-03-17T15:06:44.132Z,6.76
2019-03-17T15:09:50.750Z,6.69
2019-03-17T15:12:56.008Z,6.86
2019-03-17T15:16:03.075Z,7.03
2019-03-17T15:19:08.319Z,6.98
2019-03-17T15:22:13.603Z,6.82
2019-03-17T15:25:19.056Z,6.76
2019-03-17T15:28:24.414Z,6.74
2019-03-17T15:31:29.702Z,6.67
2019-03-17T15:34:35.148Z,6.91
2019-03-17T15:37:40.463Z,7.10
2019-03-17T15:40:45.747Z,7.31
2019-03-17T15:43:51.104Z,7.67
2019-03-17T15:46:56.359Z,7.57
2019-03-17T15:50:01.621Z,7.43
2019-03-17T15:53:06.976Z,7.43
2019-03-17T15:56:12.249Z,7.40
2019-03-17T15:59:17.584Z,7.27
2019-03-17T16:02:27.680Z,7.17
2019-03-17T16:05:31.480Z,6.99
2019-03-17T16:08:39.063Z,6.83
2019-03-17T16:11:44.444Z,6.86
2019-03-17T16:14:49.718Z,7.09
2019-03-17T16:17:54.988Z,7.01
2019-03-17T16:21:00.328Z,7.05
2019-03-17T16:24:05.754Z,7.13
2019-03-17T16:27:15.534Z,6.97
2019-03-17T16:30:21.250Z,6.91
2019-03-17T16:33:26.627Z,6.78
2019-03-17T16:36:31.989Z,6.74
2019-03-17T16:39:37.202Z,6.69
2019-03-17T16:42:42.462Z,6.58
2019-03-17T16:45:49.424Z,6.41
2019-03-17T16:48:57.251Z,6.30
2019-03-17T16:52:02.559Z,6.37
2019-03-17T16:55:07.926Z,6.30
2019-03-17T16:58:13.203Z,6.22
2019-03-17T17:01:18.493Z,6.17
2019-03-17T17:04:23.782Z,6.12
2019-03-17T17:07:30.436Z,6.07
2019-03-17T17:10:38.179Z,6.07
2019-03-17T17:13:42.668Z,5.97
2019-03-17T17:16:48.058Z,5.90
2019-03-17T17:19:53.343Z,5.85
2019-03-17T17:22:58.703Z,5.78
2019-03-17T17:26:04.010Z,5.82
2019-03-17T17:29:09.299Z,5.69
2019-03-17T17:32:14.622Z,5.51
2019-03-17T17:35:19.883Z,5.34
2019-03-17T17:38:25.248Z,5.33
2019-03-17T17:41:31.296Z,5.28
2019-03-17T17:44:36.571Z,5.13
2019-03-17T17:47:44.118Z,5.09
2019-03-17T17:50:49.457Z,5.06
2019-03-17T17:53:54.772Z,4.92
2019-03-17T17:57:00.011Z,4.51
2019-03-17T18:00:06.101Z,4.33
2019-03-17T18:03:11.450Z,4.30
2019-03-17T18:06:16.676Z,4.34
2019-03-17T18:09:21.938Z,4.31
2019-03-17T18:12:27.218Z,4.09
2019-03-17T18:15:32.578Z,4.14
2019-03-17T18:18:37.862Z,3.90
2019-03-17T18:21:43.268Z,4.26
2019-03-17T18:24:48.611Z,4.04
2019-03-17T18:27:53.982Z,4.23
2019-03-17T18:30:59.242Z,4.48
2019-03-17T18:34:04.520Z,4.46
2019-03-17T18:37:11.445Z,4.50
2019-03-17T18:40:18.532Z,4.77
2019-03-17T18:43:24.001Z,4.67
2019-03-17T18:46:29.310Z,4.64
2019-03-17T18:49:34.633Z,4.62
2019-03-17T18:52:39.921Z,4.58
2019-03-17T18:55:45.261Z,4.47
2019-03-17T18:58:50.607Z,4.39
2019-03-17T19:01:55.932Z,4.41
2019-03-17T19:05:01.201Z,4.48
2019-03-17T19:08:07.440Z,4.75
2019-03-17T19:11:12.811Z,4.79
2019-03-17T19:14:18.541Z,4.47
2019-03-17T19:17:24.021Z,4.31
2019-03-17T19:20:29.396Z,4.24
2019-03-17T19:23:34.641Z,4.16
2019-03-17T19:26:39.932Z,4.00
2019-03-17T19:29:45.255Z,3.64
2019-03-17T19:32:50.721Z,3.65
2019-03-17T19:35:56.155Z,3.58
2019-03-17T19:39:02.746Z,3.48
2019-03-17T19:42:08.071Z,3.60
2019-03-17T19:45:14.942Z,3.70
2019-03-17T19:48:20.586Z,3.49
2019-03-17T19:51:25.995Z,3.67
2019-03-17T19:54:31.292Z,3.50
2019-03-17T19:57:36.649Z,3.43
2019-03-17T20:00:42.046Z,3.40
2019-03-17T20:03:47.366Z,3.67
2019-03-17T20:06:52.651Z,3.86
2019-03-17T20:09:58.056Z,3.83
2019-03-17T20:13:11.521Z,3.65
2019-03-17T20:16:10.301Z,3.73
2019-03-17T20:19:15.553Z,3.70
2019-03-17T20:22:20.910Z,3.56
2019-03-17T20:25:26.207Z,3.59
2019-03-17T20:28:31.533Z,3.73
2019-03-17T20:31:47.658Z,3.62
2019-03-17T20:34:48.283Z,3.77
2019-03-17T20:37:53.580Z,3.54
2019-03-17T20:40:58.895Z,3.40
2019-03-17T20:44:04.266Z,3.27
2019-03-17T20:47:09.557Z,3.28
2019-03-17T20:50:17.326Z,3.56
2019-03-17T20:53:22.657Z,3.69
2019-03-17T20:56:29.370Z,3.64
2019-03-17T20:59:34.632Z,3.46
2019-03-17T21:02:41.010Z,3.19
2019-03-17T21:05:53.605Z,2.99
2019-03-17T21:08:55.847Z,3.18
2019-03-17T21:12:03.142Z,3.10
2019-03-17T21:15:10.104Z,2.93
2019-03-17T21:18:15.486Z,3.03
2019-03-17T21:21:20.867Z,3.17
2019-03-17T21:24:26.246Z,3.30
2019-03-17T21:27:31.679Z,3.28
2019-03-17T21:30:37.034Z,3.49
2019-03-17T21:33:42.394Z,3.46
2019-03-17T21:36:47.741Z,3.32
2019-03-17T21:39:53.177Z,3.27
2019-03-17T21:42:59.601Z,3.41
2019-03-17T21:46:04.942Z,3.60
2019-03-17T21:49:10.226Z,3.47
2019-03-17T21:52:15.604Z,3.47
2019-03-17T21:55:21.904Z,3.44
2019-03-17T21:58:31.290Z,3.52
2019-03-17T22:01:36.721Z,3.47
2019-03-17T22:04:42.189Z,3.26
2019-03-17T22:07:50.591Z,3.43
2019-03-17T22:10:54.527Z,3.56
2019-03-17T22:14:11.616Z,3.32
2019-03-17T22:17:06.808Z,3.38
2019-03-17T22:20:12.344Z,3.33
2019-03-17T22:23:17.735Z,3.31
2019-03-17T22:26:23.239Z,3.42
2019-03-17T22:29:28.581Z,3.26
2019-03-17T22:32:33.887Z,3.33
2019-03-17T22:35:40.639Z,3.39
2019-03-17T22:38:49.234Z,3.29
2019-03-17T22:41:54.639Z,3.52
2019-03-17T22:45:00.025Z,3.35
2019-03-17T22:48:05.472Z,3.40
2019-03-17T22:51:10.765Z,3.34
2019-03-17T22:54:16.154Z,3.45
2019-03-17T22:57:21.355Z,3.48
2019-03-17T23:00:45.856Z,3.45
2019-03-17T23:03:53.624Z,3.26
2019-03-17T23:06:58.948Z,3.24
2019-03-17T23:10:04.871Z,3.17
2019-03-17T23:13:10.120Z,3.14
2019-03-17T23:16:15.455Z,2.99
2019-03-17T23:19:20.863Z,3.03
2019-03-17T23:22:33.721Z,2.96
2019-03-17T23:25:39.289Z,2.97
2019-03-17T23:28:44.747Z,2.86
2019-03-17T23:31:50.750Z,2.91
2019-03-17T23:34:56.974Z,2.97
2019-03-17T23:38:02.332Z,2.89
2019-03-17T23:41:07.694Z,2.88
2019-03-17T23:44:13.028Z,2.84
2019-03-17T23:47:18.363Z,2.84
2019-03-17T23:50:23.614Z,2.84
2019-03-17T23:53:28.935Z,2.79
2019-03-17T23:56:34.207Z,2.88
2019-03-17T23:59:41.395Z,2.86
